createdAt,value
2019-05-05T00:01:51.003Z,1.10
2019-05-05T00:04:28.051Z,1.00
2019-05-05T00:06:57.403Z,0.90
2019-05-05T00:09:26.805Z,0.90
2019-05-05T00:12:06.929Z,0.90
2019-05-05T00:14:37.903Z,0.90
2019-05-05T00:17:11.834Z,1.00
2019-05-05T00:19:41.243Z,0.90
2019-05-05T00:22:10.603Z,0.90
2019-05-05T00:24:39.944Z,0.90
2019-05-05T00:27:09.266Z,0.80
2019-05-05T00:29:38.695Z,0.80
2019-05-05T00:32:08.099Z,0.80
2019-05-05T00:34:37.859Z,0.70
2019-05-05T00:37:07.190Z,0.80
2019-05-05T00:39:36.624Z,0.80
2019-05-05T00:42:06.027Z,0.80
2019-05-05T00:44:35.450Z,0.80
2019-05-05T00:47:15.522Z,0.80
2019-05-05T00:49:49.302Z,0.80
2019-05-05T00:52:17.568Z,0.80
2019-05-05T00:54:46.995Z,0.90
2019-05-05T00:57:16.398Z,0.90
2019-05-05T00:59:45.753Z,0.80
2019-05-05T01:02:22.556Z,0.80
2019-05-05T01:04:55.104Z,0.80
2019-05-05T01:07:24.837Z,0.80
2019-05-05T01:09:54.393Z,0.80
2019-05-05T01:12:24.476Z,0.70
2019-05-05T01:14:55.239Z,0.70
2019-05-05T01:17:25.419Z,0.60
2019-05-05T01:20:03.454Z,0.60
2019-05-05T01:22:26.074Z,0.60
2019-05-05T01:24:55.627Z,0.60
2019-05-05T01:27:25.562Z,0.60
2019-05-05T01:29:55.045Z,0.60
2019-05-05T01:32:29.126Z,0.60
2019-05-05T01:34:58.493Z,0.50
2019-05-05T01:37:35.220Z,0.50
2019-05-05T01:40:14.285Z,0.50
2019-05-05T01:42:44.665Z,0.50
2019-05-05T01:45:14.926Z,0.50
2019-05-05T01:47:45.313Z,0.50
2019-05-05T01:50:20.645Z,0.50
2019-05-05T01:52:46.103Z,0.50
2019-05-05T01:55:15.535Z,0.40
2019-05-05T01:57:45.298Z,0.40
2019-05-05T02:00:15.067Z,0.40
2019-05-05T02:02:45.047Z,0.40
2019-05-05T02:05:14.953Z,0.30
2019-05-05T02:07:45.023Z,0.30
2019-05-05T02:10:15.431Z,0.20
2019-05-05T02:12:44.944Z,0.20
2019-05-05T02:15:15.125Z,0.20
2019-05-05T02:17:44.764Z,0.20
2019-05-05T02:20:40.066Z,0.30
2019-05-05T02:23:10.910Z,0.20
2019-05-05T02:25:40.328Z,0.20
2019-05-05T02:28:09.805Z,0.20
2019-05-05T02:30:50.334Z,0.20
2019-05-05T02:33:20.807Z,0.30
2019-05-05T02:35:50.230Z,0.20
2019-05-05T02:38:19.727Z,0.10
2019-05-05T02:40:50.419Z,0.10
2019-05-05T02:43:20.471Z,0.00
2019-05-05T02:46:05.504Z,0.00
2019-05-05T02:48:35.745Z,0.00
2019-05-05T02:51:07.180Z,0.00
2019-05-05T02:53:44.696Z,0.00
2019-05-05T02:56:23.792Z,0.10
2019-05-05T02:58:55.911Z,0.10
2019-05-05T03:01:30.136Z,0.00
2019-05-05T03:04:00.855Z,0.00
2019-05-05T03:06:30.347Z,0.00
2019-05-05T03:09:00.923Z,0.00
2019-05-05T03:11:34.328Z,0.00
2019-05-05T03:14:06.827Z,0.00
2019-05-05T03:16:39.168Z,-0.10
2019-05-05T03:19:10.243Z,-0.10
2019-05-05T03:21:40.252Z,-0.10
2019-05-05T03:24:09.991Z,0.10
2019-05-05T03:26:40.988Z,0.10
2019-05-05T03:29:15.100Z,0.40
2019-05-05T03:31:46.084Z,0.30
2019-05-05T03:34:16.665Z,0.30
2019-05-05T03:36:46.632Z,0.40
2019-05-05T03:39:23.745Z,0.30
2019-05-05T03:42:01.070Z,0.20
2019-05-05T03:44:35.258Z,0.30
2019-05-05T03:47:05.158Z,0.40
2019-05-05T03:49:34.931Z,0.30
2019-05-05T03:52:04.915Z,0.30
2019-05-05T03:54:34.876Z,0.40
2019-05-05T03:57:07.766Z,0.50
2019-05-05T03:59:40.274Z,0.50
2019-05-05T04:02:14.061Z,0.50
2019-05-05T04:04:44.216Z,0.50
2019-05-05T04:07:14.055Z,0.50
2019-05-05T04:09:43.991Z,0.60
2019-05-05T04:12:14.186Z,0.70
2019-05-05T04:14:45.360Z,0.80
2019-05-05T04:17:28.304Z,0.90
2019-05-05T04:20:15.241Z,1.00
2019-05-05T04:22:44.605Z,1.00
2019-05-05T04:25:14.020Z,1.10
2019-05-05T04:27:44.495Z,1.10
2019-05-05T04:30:14.404Z,1.30
2019-05-05T04:32:44.337Z,1.60
2019-05-05T04:35:14.198Z,1.90
2019-05-05T04:37:43.913Z,2.20
2019-05-05T04:40:14.857Z,2.50
2019-05-05T04:42:44.347Z,2.60
2019-05-05T04:45:14.932Z,2.60
2019-05-05T04:47:48.912Z,2.40
2019-05-05T04:50:20.098Z,2.40
2019-05-05T04:52:51.442Z,2.40
2019-05-05T04:55:20.838Z,2.50
2019-05-05T04:57:50.215Z,2.50
2019-05-05T05:00:19.682Z,2.60
2019-05-05T05:02:56.688Z,2.30
2019-05-05T05:05:30.270Z,2.00
2019-05-05T05:07:59.644Z,1.80
2019-05-05T05:10:28.982Z,1.70
2019-05-05T05:12:58.374Z,1.70
2019-05-05T05:15:27.699Z,1.70
2019-05-05T05:20:48.492Z,1.70
2019-05-05T05:23:17.918Z,1.60
2019-05-05T05:25:47.257Z,1.60
2019-05-05T05:28:16.620Z,1.70
2019-05-05T05:30:46.015Z,2.00
2019-05-05T05:33:15.444Z,2.20
2019-05-05T05:35:44.849Z,2.30
2019-05-05T05:38:14.291Z,2.50
2019-05-05T05:40:48.238Z,2.70
2019-05-05T05:43:19.242Z,2.90
2019-05-05T05:45:56.310Z,3.00
2019-05-05T05:48:27.311Z,3.30
2019-05-05T05:51:00.964Z,3.40
2019-05-05T05:53:30.329Z,3.60
2019-05-05T05:55:59.657Z,3.90
2019-05-05T05:58:28.989Z,4.00
2019-05-05T06:00:58.617Z,4.10
2019-05-05T06:03:28.020Z,4.10
2019-05-05T06:05:57.379Z,4.20
2019-05-05T06:08:26.716Z,4.10
2019-05-05T06:10:56.076Z,4.20
2019-05-05T06:13:25.788Z,4.30
2019-05-05T06:15:55.142Z,4.30
2019-05-05T06:18:24.519Z,4.10
2019-05-05T06:20:53.956Z,4.30
2019-05-05T06:23:24.075Z,4.30
2019-05-05T06:25:55.189Z,4.30
2019-05-05T06:28:24.672Z,4.10
2019-05-05T06:30:54.666Z,4.10
2019-05-05T06:33:24.313Z,4.30
2019-05-05T06:35:53.794Z,4.30
2019-05-05T06:38:24.123Z,4.70
2019-05-05T06:41:11.696Z,4.80
2019-05-05T06:43:44.114Z,4.60
2019-05-05T06:46:15.339Z,4.60
2019-05-05T06:48:44.753Z,4.30
2019-05-05T06:51:14.194Z,4.20
2019-05-05T06:53:43.708Z,4.50
2019-05-05T06:56:14.550Z,4.40
2019-05-05T06:58:44.818Z,4.60
2019-05-05T07:01:14.478Z,5.00
2019-05-05T07:03:44.023Z,5.40
2019-05-05T07:06:14.648Z,5.60
2019-05-05T07:08:44.108Z,5.90
2019-05-05T07:11:14.505Z,5.70
2019-05-05T07:13:44.411Z,6.00
2019-05-05T07:16:15.034Z,6.40
2019-05-05T07:18:44.736Z,6.30
2019-05-05T07:21:14.454Z,6.30
2019-05-05T07:23:44.550Z,6.40
2019-05-05T07:26:14.537Z,6.20
2019-05-05T07:28:45.145Z,6.20
2019-05-05T07:31:14.556Z,5.60
2019-05-05T07:33:44.730Z,6.10
2019-05-05T07:36:34.230Z,6.20
2019-05-05T07:39:05.572Z,6.70
2019-05-05T07:41:35.566Z,6.90
2019-05-05T07:44:05.137Z,6.80
2019-05-05T07:46:34.778Z,6.70
2019-05-05T07:49:04.187Z,6.70
2019-05-05T07:51:33.784Z,6.40
2019-05-05T07:54:03.921Z,6.60
2019-05-05T07:56:34.352Z,6.70
2019-05-05T07:59:04.151Z,6.60
2019-05-05T08:01:33.858Z,6.10
2019-05-05T08:04:04.490Z,6.70
2019-05-05T08:06:34.153Z,6.70
2019-05-05T08:09:05.558Z,6.90
2019-05-05T08:11:34.919Z,7.10
2019-05-05T08:14:04.314Z,6.70
2019-05-05T08:16:41.288Z,7.00
2019-05-05T08:19:27.221Z,7.20
2019-05-05T08:21:56.648Z,7.60
2019-05-05T08:24:30.330Z,7.40
2019-05-05T08:27:01.466Z,7.70
2019-05-05T08:29:34.381Z,8.50
2019-05-05T08:32:23.785Z,8.80
2019-05-05T08:34:59.880Z,9.30
2019-05-05T08:37:24.217Z,9.70
2019-05-05T08:39:54.060Z,10.20
2019-05-05T08:42:24.687Z,10.10
2019-05-05T08:44:54.213Z,9.50
2019-05-05T08:47:24.610Z,9.50
2019-05-05T08:49:54.763Z,9.40
2019-05-05T08:52:24.194Z,8.60
2019-05-05T08:54:54.264Z,8.10
2019-05-05T08:57:23.762Z,7.70
2019-05-05T08:59:54.493Z,8.50
2019-05-05T09:02:24.210Z,8.60
2019-05-05T09:04:53.887Z,9.00
2019-05-05T09:07:24.321Z,8.80
2019-05-05T09:09:54.676Z,9.30
2019-05-05T09:12:24.209Z,9.50
2019-05-05T09:14:54.013Z,9.60
2019-05-05T09:17:24.320Z,9.80
2019-05-05T09:19:54.548Z,9.10
2019-05-05T09:22:24.574Z,8.70
2019-05-05T09:25:04.762Z,8.60
2019-05-05T09:27:38.772Z,8.50
2019-05-05T09:30:14.123Z,7.90
2019-05-05T09:32:43.842Z,7.20
2019-05-05T09:35:13.972Z,7.50
2019-05-05T09:37:44.412Z,7.70
2019-05-05T09:40:18.042Z,7.90
2019-05-05T09:42:47.369Z,7.50
2019-05-05T09:45:16.860Z,7.80
2019-05-05T09:47:46.293Z,8.70
2019-05-05T09:50:15.779Z,8.70
2019-05-05T09:52:45.114Z,9.10
2019-05-05T09:55:14.643Z,8.90
2019-05-05T09:57:44.143Z,9.30
2019-05-05T10:00:14.828Z,9.70
2019-05-05T10:02:44.720Z,9.50
2019-05-05T10:05:15.743Z,9.20
2019-05-05T10:07:45.210Z,9.50
2019-05-05T10:10:15.218Z,9.30
2019-05-05T10:12:44.746Z,9.10
2019-05-05T10:15:14.615Z,8.90
2019-05-05T10:17:44.408Z,9.00
2019-05-05T10:20:14.608Z,8.80
2019-05-05T10:22:44.088Z,9.10
2019-05-05T10:25:34.178Z,8.80
2019-05-05T10:28:04.396Z,8.80
2019-05-05T10:30:34.911Z,9.10
2019-05-05T10:33:04.384Z,9.00
2019-05-05T10:35:34.570Z,8.70
2019-05-05T10:38:04.153Z,8.50
2019-05-05T10:40:34.647Z,7.60
2019-05-05T10:43:04.606Z,7.50
2019-05-05T10:45:34.262Z,6.60
2019-05-05T10:48:05.265Z,6.40
2019-05-05T10:50:34.999Z,6.30
2019-05-05T10:53:04.807Z,6.30
2019-05-05T10:55:35.945Z,6.10
2019-05-05T10:58:05.628Z,6.10
2019-05-05T11:00:54.357Z,6.40
2019-05-05T11:03:23.792Z,6.20
2019-05-05T11:05:53.794Z,6.20
2019-05-05T11:08:24.539Z,6.60
2019-05-05T11:10:53.977Z,6.70
2019-05-05T11:13:24.035Z,7.40
2019-05-05T11:15:54.739Z,8.20
2019-05-05T11:18:24.364Z,8.60
2019-05-05T11:20:54.889Z,9.20
2019-05-05T11:23:25.029Z,10.00
2019-05-05T11:25:54.658Z,10.00
2019-05-05T11:28:24.168Z,10.40
2019-05-05T11:30:54.071Z,10.10
2019-05-05T11:33:25.049Z,10.80
2019-05-05T11:35:58.580Z,10.40
2019-05-05T11:38:28.079Z,10.30
2019-05-05T11:40:57.767Z,10.50
2019-05-05T11:43:27.098Z,9.40
2019-05-05T11:45:56.624Z,9.90
2019-05-05T11:48:26.260Z,9.70
2019-05-05T11:50:55.753Z,9.60
2019-05-05T11:53:25.296Z,10.20
2019-05-05T11:55:55.287Z,10.90
2019-05-05T11:58:25.166Z,10.70
2019-05-05T12:00:54.871Z,11.00
2019-05-05T12:03:24.509Z,11.00
2019-05-05T12:05:53.934Z,10.70
2019-05-05T12:08:23.854Z,9.90
2019-05-05T12:10:55.380Z,10.00
2019-05-05T12:13:24.891Z,10.20
2019-05-05T12:16:01.665Z,10.30
2019-05-05T12:18:31.067Z,10.10
2019-05-05T12:21:00.704Z,10.60
2019-05-05T12:23:30.055Z,10.50
2019-05-05T12:26:17.393Z,10.50
2019-05-05T12:28:48.533Z,10.30
2019-05-05T12:31:24.593Z,10.30
2019-05-05T12:33:54.779Z,10.30
2019-05-05T12:36:25.381Z,10.70
2019-05-05T12:38:54.858Z,10.90
2019-05-05T12:41:24.302Z,11.30
2019-05-05T12:43:54.870Z,11.40
2019-05-05T12:46:29.850Z,11.40
2019-05-05T12:49:00.460Z,11.00
2019-05-05T12:51:31.442Z,10.20
2019-05-05T12:54:00.921Z,10.10
2019-05-05T12:56:34.037Z,10.10
2019-05-05T12:59:05.100Z,9.40
2019-05-05T13:01:38.534Z,9.40
2019-05-05T13:04:07.942Z,9.90
2019-05-05T13:06:37.649Z,10.30
2019-05-05T13:09:08.392Z,10.30
2019-05-05T13:11:37.821Z,10.40
2019-05-05T13:14:07.297Z,10.80
2019-05-05T13:16:36.730Z,10.90
2019-05-05T13:19:07.867Z,11.30
2019-05-05T13:21:44.079Z,11.20
2019-05-05T13:24:20.477Z,11.10
2019-05-05T13:26:51.563Z,11.40
2019-05-05T13:29:20.903Z,11.40
2019-05-05T13:31:50.343Z,11.20
2019-05-05T13:34:19.719Z,11.10
2019-05-05T13:36:49.101Z,11.30
2019-05-05T13:39:18.502Z,11.60
2019-05-05T13:41:47.866Z,11.80
2019-05-05T13:44:24.658Z,11.90
2019-05-05T13:46:54.161Z,11.80
2019-05-05T13:49:25.142Z,12.00
2019-05-05T13:51:54.517Z,11.80
2019-05-05T13:54:24.316Z,11.60
2019-05-05T13:56:53.841Z,11.20
2019-05-05T13:59:25.511Z,9.80
2019-05-05T14:01:54.656Z,9.90
2019-05-05T14:04:23.992Z,9.60
2019-05-05T14:06:54.399Z,10.00
2019-05-05T14:09:23.863Z,10.30
2019-05-05T14:11:53.587Z,10.40
2019-05-05T14:14:24.278Z,10.40
2019-05-05T14:16:54.003Z,10.90
2019-05-05T14:19:24.811Z,10.90
2019-05-05T14:21:54.302Z,10.50
2019-05-05T14:24:25.309Z,10.60
2019-05-05T14:26:54.651Z,10.90
2019-05-05T14:29:41.985Z,11.40
2019-05-05T14:32:13.518Z,11.40
2019-05-05T14:34:44.759Z,11.50
2019-05-05T14:37:34.054Z,11.90
2019-05-05T14:40:05.463Z,12.00
2019-05-05T14:42:34.844Z,11.90
2019-05-05T14:45:06.016Z,11.20
2019-05-05T14:47:35.439Z,11.40
2019-05-05T14:50:06.014Z,11.20
2019-05-05T14:52:35.420Z,11.40
2019-05-05T14:55:07.298Z,11.40
2019-05-05T14:57:36.642Z,10.90
2019-05-05T15:00:13.675Z,11.40
2019-05-05T15:02:43.881Z,11.50
2019-05-05T15:05:31.504Z,11.60
2019-05-05T15:08:02.493Z,11.50
2019-05-05T15:10:48.793Z,11.60
2019-05-05T15:13:20.310Z,11.60
2019-05-05T15:15:49.808Z,11.50
2019-05-05T15:18:19.319Z,11.20
2019-05-05T15:20:51.666Z,11.20
2019-05-05T15:23:19.754Z,11.60
2019-05-05T15:25:49.120Z,11.60
2019-05-05T15:28:18.522Z,11.90
2019-05-05T15:30:47.898Z,11.40
2019-05-05T15:33:17.309Z,11.60
2019-05-05T15:35:46.712Z,11.50
2019-05-05T15:38:16.175Z,11.20
2019-05-05T15:40:48.084Z,11.10
2019-05-05T15:43:16.814Z,11.00
2019-05-05T15:45:46.378Z,10.40
2019-05-05T15:48:15.772Z,10.20
2019-05-05T15:50:45.572Z,10.50
2019-05-05T15:53:15.042Z,10.40
2019-05-05T15:55:44.802Z,10.50
2019-05-05T15:58:14.294Z,10.50
2019-05-05T16:00:44.313Z,10.80
2019-05-05T16:03:13.925Z,10.80
2019-05-05T16:05:43.722Z,10.80
2019-05-05T16:08:16.159Z,10.60
2019-05-05T16:10:46.571Z,10.60
2019-05-05T16:13:16.594Z,10.40
2019-05-05T16:15:47.600Z,10.20
2019-05-05T16:18:24.608Z,10.30
2019-05-05T16:21:07.815Z,10.30
2019-05-05T16:23:39.072Z,10.40
2019-05-05T16:26:08.574Z,10.10
2019-05-05T16:28:37.988Z,10.60
2019-05-05T16:31:07.507Z,10.50
2019-05-05T16:33:36.852Z,10.90
2019-05-05T16:36:06.485Z,11.20
2019-05-05T16:38:36.033Z,11.00
2019-05-05T16:41:05.499Z,11.20
2019-05-05T16:43:34.839Z,11.70
2019-05-05T16:46:04.346Z,11.50
2019-05-05T16:48:34.395Z,11.50
2019-05-05T16:51:05.565Z,11.10
2019-05-05T16:53:35.843Z,9.80
2019-05-05T16:56:14.011Z,9.70
2019-05-05T16:58:45.039Z,9.30
2019-05-05T17:01:16.292Z,9.30
2019-05-05T17:03:46.042Z,8.90
2019-05-05T17:06:15.489Z,8.90
2019-05-05T17:08:44.891Z,8.90
2019-05-05T17:11:15.226Z,8.90
2019-05-05T17:13:55.411Z,8.70
2019-05-05T17:16:44.211Z,8.90
2019-05-05T17:19:15.294Z,9.00
2019-05-05T17:21:53.598Z,9.30
2019-05-05T17:24:23.963Z,9.20
2019-05-05T17:26:54.990Z,9.90
2019-05-05T17:29:24.457Z,10.20
2019-05-05T17:31:54.143Z,10.50
2019-05-05T17:34:24.758Z,10.00
2019-05-05T17:36:54.287Z,9.30
2019-05-05T17:39:25.342Z,9.20
2019-05-05T17:41:56.605Z,9.70
2019-05-05T17:44:27.595Z,10.40
2019-05-05T17:47:11.010Z,10.90
2019-05-05T17:49:56.974Z,10.40
2019-05-05T17:52:44.202Z,10.60
2019-05-05T17:55:15.319Z,10.10
2019-05-05T17:57:44.677Z,9.80
2019-05-05T18:00:14.819Z,9.60
2019-05-05T18:02:44.189Z,9.10
2019-05-05T18:05:14.030Z,9.00
2019-05-05T18:07:45.269Z,8.70
2019-05-05T18:10:17.247Z,8.50
2019-05-05T18:12:48.314Z,8.20
2019-05-05T18:15:35.582Z,7.80
2019-05-05T18:18:05.074Z,7.60
2019-05-05T18:20:34.407Z,7.30
2019-05-05T18:23:03.841Z,7.30
2019-05-05T18:25:34.670Z,7.20
2019-05-05T18:28:15.742Z,6.90
2019-05-05T18:30:35.698Z,6.60
2019-05-05T18:33:05.181Z,6.50
2019-05-05T18:35:34.582Z,6.60
2019-05-05T18:38:04.211Z,6.40
2019-05-05T18:40:33.803Z,6.60
2019-05-05T18:43:04.860Z,6.40
2019-05-05T18:45:35.528Z,6.30
2019-05-05T18:48:05.186Z,5.90
2019-05-05T18:50:34.777Z,5.90
2019-05-05T18:53:04.683Z,5.60
2019-05-05T18:55:34.056Z,5.50
2019-05-05T18:58:05.131Z,5.50
2019-05-05T19:00:48.012Z,5.50
2019-05-05T19:03:35.192Z,5.40
2019-05-05T19:06:06.172Z,5.40
2019-05-05T19:08:37.179Z,5.20
2019-05-05T19:11:06.577Z,5.20
2019-05-05T19:13:35.934Z,5.10
2019-05-05T19:16:05.262Z,4.90
2019-05-05T19:18:34.621Z,4.70
2019-05-05T19:21:05.760Z,4.70
2019-05-05T19:23:35.638Z,4.70
2019-05-05T19:26:07.659Z,4.60
2019-05-05T19:28:44.439Z,4.50
2019-05-05T19:31:07.434Z,4.40
2019-05-05T19:33:36.791Z,4.20
2019-05-05T19:36:06.142Z,4.20
2019-05-05T19:38:35.510Z,4.10
2019-05-05T19:41:04.915Z,4.00
2019-05-05T19:43:36.766Z,4.00
2019-05-05T19:46:07.033Z,4.30
2019-05-05T19:48:36.386Z,4.20
2019-05-05T19:51:07.489Z,4.30
2019-05-05T19:53:36.867Z,4.50
2019-05-05T19:56:06.273Z,4.30
2019-05-05T19:58:36.565Z,4.10
2019-05-05T20:01:06.345Z,4.00
2019-05-05T20:03:35.983Z,3.80
2019-05-05T20:06:05.898Z,3.60
2019-05-05T20:08:40.977Z,3.60
2019-05-05T20:11:06.575Z,3.40
2019-05-05T20:13:35.902Z,3.20
2019-05-05T20:16:09.785Z,3.20
2019-05-05T20:18:39.115Z,3.20
2019-05-05T20:21:08.479Z,3.10
2019-05-05T20:23:37.809Z,3.00
2019-05-05T20:26:07.392Z,2.90
2019-05-05T20:28:36.740Z,2.80
2019-05-05T20:31:06.150Z,2.60
2019-05-05T20:33:46.160Z,2.60
2019-05-05T20:36:17.153Z,2.50
2019-05-05T20:38:48.128Z,2.40
2019-05-05T20:41:19.057Z,2.30
2019-05-05T20:43:48.525Z,2.20
2019-05-05T20:46:17.952Z,2.10
2019-05-05T20:48:47.350Z,2.00
2019-05-05T20:51:16.709Z,2.00
2019-05-05T20:53:49.102Z,2.00
2019-05-05T20:56:17.399Z,2.00
2019-05-05T20:58:46.799Z,1.90
2019-05-05T21:01:16.518Z,2.00
2019-05-05T21:03:45.856Z,2.00
2019-05-05T21:06:15.213Z,1.90
2019-05-05T21:08:44.714Z,1.90
2019-05-05T21:11:14.368Z,1.80
2019-05-05T21:13:45.049Z,1.80
2019-05-05T21:16:14.613Z,1.70
2019-05-05T21:18:43.947Z,1.70
2019-05-05T21:21:15.014Z,1.60
2019-05-05T21:23:46.261Z,1.60
2019-05-05T21:26:17.584Z,1.50
2019-05-05T21:28:47.153Z,1.50
2019-05-05T21:31:16.734Z,1.30
2019-05-05T21:33:46.459Z,1.20
2019-05-05T21:36:16.143Z,1.10
2019-05-05T21:38:45.537Z,1.00
2019-05-05T21:41:14.959Z,0.90
2019-05-05T21:43:44.931Z,0.90
2019-05-05T21:46:14.571Z,0.80
2019-05-05T21:48:46.377Z,0.70
2019-05-05T21:51:35.014Z,0.60
2019-05-05T21:54:23.547Z,0.50
2019-05-05T21:57:14.068Z,0.40
2019-05-05T21:59:54.882Z,0.40
2019-05-05T22:02:15.338Z,0.30
2019-05-05T22:04:44.793Z,0.20
2019-05-05T22:07:14.579Z,0.10
2019-05-05T22:09:44.115Z,0.00
2019-05-05T22:12:13.640Z,0.00
2019-05-05T22:14:43.924Z,-0.10
2019-05-05T22:17:14.615Z,-0.10
2019-05-05T22:19:58.075Z,-0.20
2019-05-05T22:22:29.095Z,-0.20
2019-05-05T22:24:58.427Z,-0.30
2019-05-05T22:27:27.786Z,-0.40
2019-05-05T22:30:09.156Z,-0.40
2019-05-05T22:32:28.296Z,-0.50
2019-05-05T22:34:57.634Z,-0.50
2019-05-05T22:37:26.994Z,-0.60
2019-05-05T22:39:56.336Z,-0.70
2019-05-05T22:42:25.765Z,-0.60
2019-05-05T22:44:55.106Z,-0.70
2019-05-05T22:47:24.469Z,-0.80
2019-05-05T22:49:54.057Z,-0.70
2019-05-05T22:52:25.439Z,-0.60
2019-05-05T22:54:54.468Z,-0.80
2019-05-05T22:57:24.741Z,-0.90
2019-05-05T22:59:54.293Z,-1.10
2019-05-05T23:02:25.464Z,-1.10
2019-05-05T23:04:59.135Z,-1.20
2019-05-05T23:07:34.797Z,-1.20
2019-05-05T23:10:04.844Z,-1.30
2019-05-05T23:12:35.081Z,-1.30
2019-05-05T23:15:08.450Z,-1.30
2019-05-05T23:17:43.682Z,-1.40
2019-05-05T23:20:24.959Z,-1.40
2019-05-05T23:22:56.040Z,-1.50
2019-05-05T23:25:27.012Z,-1.50
2019-05-05T23:27:56.447Z,-1.50
2019-05-05T23:30:38.558Z,-1.50
2019-05-05T23:32:57.022Z,-1.50
2019-05-05T23:35:26.425Z,-1.70
2019-05-05T23:37:55.798Z,-1.70
2019-05-05T23:40:28.059Z,-1.70
2019-05-05T23:42:57.415Z,-1.80
2019-05-05T23:45:26.757Z,-1.80
2019-05-05T23:47:56.192Z,-1.80
2019-05-05T23:50:25.771Z,-1.70
2019-05-05T23:52:55.179Z,-1.60
2019-05-05T23:55:24.553Z,-1.70
2019-05-05T23:57:54.911Z,-1.80
